createdAt,value
2022-08-27T00:02:20.539Z,74833.13
2022-08-27T00:04:51.788Z,74824.66
2022-08-27T00:07:20.143Z,74818.31
2022-08-27T00:09:48.357Z,74816.19
2022-08-27T00:12:16.909Z,74847.94
2022-08-27T00:14:46.282Z,74839.47
2022-08-27T00:17:14.973Z,74841.59
2022-08-27T00:19:43.318Z,74841.59
2022-08-27T00:22:13.844Z,74831.00
2022-08-27T00:24:48.773Z,74854.28
2022-08-27T00:27:17.627Z,74869.09
2022-08-27T00:29:45.881Z,74890.25
2022-08-27T00:32:14.001Z,74913.53
2022-08-27T00:34:42.380Z,74926.22
2022-08-27T00:37:10.922Z,74915.63
2022-08-27T00:39:40.523Z,74928.34
2022-08-27T00:42:10.242Z,74921.97
2022-08-27T00:44:38.930Z,74917.75
2022-08-27T00:47:09.442Z,74949.50
2022-08-27T00:49:41.022Z,74945.25
2022-08-27T00:52:14.596Z,74924.09
2022-08-27T00:54:44.481Z,74936.78
2022-08-27T00:57:12.840Z,74938.91
2022-08-27T00:59:41.708Z,74932.56
2022-08-27T01:02:27.147Z,74928.34
2022-08-27T01:05:00.152Z,74928.34
2022-08-27T01:07:29.830Z,74915.63
2022-08-27T01:10:01.748Z,74902.94
2022-08-27T01:12:32.175Z,74905.06
2022-08-27T01:15:02.051Z,74913.53
2022-08-27T01:17:30.973Z,74932.56
2022-08-27T01:20:02.481Z,74924.09
2022-08-27T01:22:39.697Z,74915.63
2022-08-27T01:25:12.577Z,74911.41
2022-08-27T01:27:41.864Z,74917.75
2022-08-27T01:30:11.728Z,74915.63
2022-08-27T01:32:40.587Z,74907.19
2022-08-27T01:35:10.613Z,74905.06
2022-08-27T01:37:39.306Z,74909.28
2022-08-27T01:40:13.477Z,74915.63
2022-08-27T01:42:43.328Z,74949.50
2022-08-27T01:45:14.675Z,74960.06
2022-08-27T01:47:43.356Z,74966.41
2022-08-27T01:50:15.077Z,74962.19
2022-08-27T01:52:42.868Z,74962.19
2022-08-27T01:55:15.428Z,74960.06
2022-08-27T01:57:44.474Z,74951.59
2022-08-27T02:00:15.795Z,74945.25
2022-08-27T02:02:44.792Z,74941.03
2022-08-27T02:05:13.218Z,74966.41
2022-08-27T02:07:42.434Z,74979.13
2022-08-27T02:10:15.415Z,74964.31
2022-08-27T02:12:43.717Z,74953.72
2022-08-27T02:15:13.347Z,74951.59
2022-08-27T02:17:41.546Z,74943.16
2022-08-27T02:20:11.012Z,74949.50
2022-08-27T02:22:39.563Z,74953.72
2022-08-27T02:25:10.493Z,74968.53
2022-08-27T02:27:41.535Z,74957.97
2022-08-27T02:30:13.074Z,74953.72
2022-08-27T02:32:41.136Z,74981.22
2022-08-27T02:35:10.322Z,74996.03
2022-08-27T02:37:38.249Z,74983.34
2022-08-27T02:40:07.359Z,74983.34
2022-08-27T02:42:35.524Z,74985.47
2022-08-27T02:45:06.595Z,74974.88
2022-08-27T02:47:35.113Z,74957.97
2022-08-27T02:50:03.517Z,74966.41
2022-08-27T02:52:31.760Z,74974.88
2022-08-27T02:55:00.472Z,74983.34
2022-08-27T02:57:28.938Z,74983.34
2022-08-27T03:00:00.168Z,75000.28
2022-08-27T03:02:29.775Z,74996.03
2022-08-27T03:04:57.818Z,75012.97
2022-08-27T03:07:26.369Z,75010.84
2022-08-27T03:09:54.756Z,74998.16
2022-08-27T03:12:24.759Z,74996.03
2022-08-27T03:14:53.008Z,74983.34
2022-08-27T03:17:38.838Z,74966.41
2022-08-27T03:20:11.185Z,74955.84
2022-08-27T03:22:40.234Z,74955.84
2022-08-27T03:25:09.365Z,74947.38
2022-08-27T03:27:37.485Z,74951.59
2022-08-27T03:30:06.557Z,74947.38
2022-08-27T03:32:34.500Z,74932.56
2022-08-27T03:35:02.482Z,74945.25
2022-08-27T03:37:32.362Z,74977.00
2022-08-27T03:40:00.511Z,74991.81
2022-08-27T03:42:28.876Z,74983.34
2022-08-27T03:44:57.396Z,74972.78
2022-08-27T03:47:25.506Z,74966.41
2022-08-27T03:49:53.451Z,74974.88
2022-08-27T03:52:21.411Z,74979.13
2022-08-27T03:54:50.948Z,74993.94
2022-08-27T03:57:18.961Z,75012.97
2022-08-27T03:59:46.961Z,75000.28
2022-08-27T04:02:16.676Z,75000.28
2022-08-27T04:04:44.997Z,75002.38
2022-08-27T04:07:13.309Z,75012.97
2022-08-27T04:09:41.181Z,75021.44
2022-08-27T04:12:11.545Z,75021.44
2022-08-27T04:14:40.011Z,75019.31
2022-08-27T04:17:08.302Z,74996.03
2022-08-27T04:19:36.651Z,74983.34
2022-08-27T04:22:07.659Z,74970.66
2022-08-27T04:24:37.143Z,74962.19
2022-08-27T04:27:06.583Z,74951.59
2022-08-27T04:29:36.233Z,74949.50
2022-08-27T04:32:05.206Z,74934.69
2022-08-27T04:34:33.275Z,74919.88
2022-08-27T04:37:01.471Z,74905.06
2022-08-27T04:39:30.813Z,74913.53
2022-08-27T04:42:00.510Z,74911.41
2022-08-27T04:44:30.726Z,74919.88
2022-08-27T04:47:01.787Z,74907.19
2022-08-27T04:49:33.528Z,74890.25
2022-08-27T04:52:02.906Z,74879.66
2022-08-27T04:54:32.891Z,74873.31
2022-08-27T04:57:01.560Z,74860.63
2022-08-27T04:59:30.063Z,74852.16
2022-08-27T05:03:07.678Z,74826.78
2022-08-27T05:05:37.806Z,74814.06
2022-08-27T05:08:13.161Z,74801.38
2022-08-27T05:10:42.776Z,74805.63
2022-08-27T05:13:11.030Z,74788.69
2022-08-27T05:15:45.798Z,74769.66
2022-08-27T05:18:18.780Z,74759.06
2022-08-27T05:20:50.198Z,74748.47
2022-08-27T05:23:19.755Z,74737.91
2022-08-27T05:25:50.249Z,74725.22
2022-08-27T05:28:21.703Z,74712.50
2022-08-27T05:31:04.008Z,74710.41
2022-08-27T05:33:32.492Z,74695.59
2022-08-27T05:36:02.933Z,74678.66
2022-08-27T05:38:32.806Z,74657.50
2022-08-27T05:41:07.581Z,74646.94
2022-08-27T05:43:36.397Z,74621.53
2022-08-27T05:46:06.738Z,74604.59
2022-08-27T05:48:36.301Z,74589.81
2022-08-27T05:51:13.625Z,74564.41
2022-08-27T05:53:49.309Z,74539.03
2022-08-27T05:56:20.391Z,74526.31
2022-08-27T05:59:06.760Z,74505.16
2022-08-27T06:01:39.326Z,74477.66
2022-08-27T06:04:07.335Z,74454.41
2022-08-27T06:06:37.561Z,74445.94
2022-08-27T06:09:06.406Z,74429.00
2022-08-27T06:11:34.182Z,74416.31
2022-08-27T06:14:01.956Z,74395.16
2022-08-27T06:16:29.974Z,74386.69
2022-08-27T06:18:58.969Z,74357.06
2022-08-27T06:21:27.299Z,74340.16
2022-08-27T06:23:56.852Z,74323.22
2022-08-27T06:26:26.552Z,74304.19
2022-08-27T06:28:55.205Z,74285.16
2022-08-27T06:31:24.594Z,74264.00
2022-08-27T06:33:53.191Z,74253.41
2022-08-27T06:36:23.374Z,74232.25
2022-08-27T06:38:53.668Z,74219.56
2022-08-27T06:41:24.583Z,74211.09
2022-08-27T06:43:53.773Z,74187.81
2022-08-27T06:46:23.247Z,74168.78
2022-08-27T06:48:52.515Z,74151.88
2022-08-27T06:51:24.577Z,74139.16
2022-08-27T06:53:52.619Z,74122.25
2022-08-27T06:56:22.674Z,74105.31
2022-08-27T06:58:54.090Z,74086.28
2022-08-27T07:01:22.467Z,74073.59
2022-08-27T07:03:50.688Z,74054.56
2022-08-27T07:06:19.275Z,74041.84
2022-08-27T07:08:53.244Z,74016.47
2022-08-27T07:11:22.910Z,74018.59
2022-08-27T07:13:51.296Z,74005.91
2022-08-27T07:16:23.235Z,73988.97
2022-08-27T07:18:51.649Z,73984.75
2022-08-27T07:21:20.925Z,73978.41
2022-08-27T07:23:49.952Z,73953.00
2022-08-27T07:26:19.418Z,73938.19
2022-08-27T07:28:50.142Z,73925.50
2022-08-27T07:31:20.715Z,73904.34
2022-08-27T07:33:52.778Z,73891.66
2022-08-27T07:36:20.947Z,73868.41
2022-08-27T07:38:56.629Z,73851.47
2022-08-27T07:41:30.511Z,73836.66
2022-08-27T07:44:18.409Z,73813.41
2022-08-27T07:46:48.803Z,73790.13
2022-08-27T07:49:17.400Z,73775.31
2022-08-27T07:51:46.277Z,73768.97
2022-08-27T07:54:14.390Z,73760.50
2022-08-27T07:56:42.652Z,73760.50
2022-08-27T07:59:24.071Z,73741.47
2022-08-27T08:01:52.981Z,73724.56
2022-08-27T08:04:22.634Z,73707.63
2022-08-27T08:06:51.452Z,73690.72
2022-08-27T08:09:19.454Z,73684.38
2022-08-27T08:11:47.235Z,73665.31
2022-08-27T08:14:15.131Z,73650.50
2022-08-27T08:16:44.453Z,73635.72
2022-08-27T08:19:12.576Z,73633.59
2022-08-27T08:21:40.315Z,73625.13
2022-08-27T08:24:08.775Z,73616.66
2022-08-27T08:26:36.933Z,73603.97
2022-08-27T08:29:05.419Z,73591.28
2022-08-27T08:31:33.466Z,73587.06
2022-08-27T08:34:02.557Z,73593.41
2022-08-27T08:36:30.341Z,73582.84
2022-08-27T08:38:58.446Z,73582.84
2022-08-27T08:41:36.904Z,73578.59
2022-08-27T08:44:09.628Z,73568.03
2022-08-27T08:46:41.392Z,73572.25
2022-08-27T08:49:18.200Z,73570.13
2022-08-27T08:51:47.439Z,73570.13
2022-08-27T08:54:17.318Z,73563.78
2022-08-27T08:56:54.774Z,73553.22
2022-08-27T08:59:29.535Z,73542.63
2022-08-27T09:01:58.180Z,73540.53
2022-08-27T09:04:28.452Z,73529.94
2022-08-27T09:06:59.829Z,73515.16
2022-08-27T09:09:32.887Z,73517.25
2022-08-27T09:12:02.557Z,73510.91
2022-08-27T09:14:36.669Z,73498.22
2022-08-27T09:17:10.712Z,73487.66
2022-08-27T09:19:41.641Z,73474.97
2022-08-27T09:22:15.611Z,73468.59
2022-08-27T09:24:53.904Z,73453.81
2022-08-27T09:27:22.493Z,73439.00
2022-08-27T09:29:52.947Z,73434.78
2022-08-27T09:32:25.195Z,73430.53
2022-08-27T09:34:58.727Z,73430.53
2022-08-27T09:37:33.825Z,73417.84
2022-08-27T09:40:13.244Z,73388.22
2022-08-27T09:42:43.897Z,73386.13
2022-08-27T09:45:16.614Z,73379.78
2022-08-27T09:47:46.103Z,73379.78
2022-08-27T09:50:18.452Z,73371.31
2022-08-27T09:52:51.538Z,73367.09
2022-08-27T09:55:38.504Z,73350.16
2022-08-27T09:58:09.506Z,73343.81
2022-08-27T10:00:38.627Z,73329.00
2022-08-27T10:03:07.379Z,73322.66
2022-08-27T10:05:40.506Z,73322.66
2022-08-27T10:08:15.992Z,73331.13
2022-08-27T10:10:48.551Z,73343.81
2022-08-27T10:13:21.327Z,73354.41
2022-08-27T10:16:11.302Z,73356.50
2022-08-27T10:18:46.266Z,73367.09
2022-08-27T10:21:21.819Z,73354.41
2022-08-27T10:24:01.537Z,73335.34
2022-08-27T10:26:35.960Z,73331.13
2022-08-27T10:29:10.812Z,73324.78
2022-08-27T10:31:42.141Z,73318.44
2022-08-27T10:34:21.118Z,73312.09
2022-08-27T10:36:58.435Z,73267.69
2022-08-27T10:39:37.427Z,73263.44
2022-08-27T10:42:12.230Z,73286.72
2022-08-27T10:44:51.324Z,73284.59
2022-08-27T10:47:46.250Z,73261.34
2022-08-27T10:50:25.672Z,73274.03
2022-08-27T10:52:57.959Z,73244.41
2022-08-27T10:55:30.146Z,73219.03
2022-08-27T10:58:25.057Z,73233.84
2022-08-27T11:00:59.508Z,73219.03
2022-08-27T11:03:32.251Z,73225.38
2022-08-27T11:06:04.937Z,73202.09
2022-08-27T11:08:41.054Z,73187.31
2022-08-27T11:11:51.794Z,73166.16
2022-08-27T11:14:01.272Z,73149.22
2022-08-27T11:16:34.850Z,73119.63
2022-08-27T11:19:07.264Z,73138.66
2022-08-27T11:21:40.140Z,73178.84
2022-08-27T11:24:18.739Z,73210.56
2022-08-27T11:26:47.732Z,73244.41
2022-08-27T11:29:20.860Z,73254.97
2022-08-27T11:31:53.860Z,73269.78
2022-08-27T11:34:26.951Z,73274.03
2022-08-27T11:37:12.926Z,73269.78
2022-08-27T11:39:59.689Z,73235.94
2022-08-27T11:42:39.742Z,73242.28
2022-08-27T11:45:11.147Z,73261.34
2022-08-27T11:47:39.820Z,73290.94
2022-08-27T11:50:18.486Z,73242.28
2022-08-27T11:52:58.742Z,73197.88
2022-08-27T11:55:31.621Z,73168.28
2022-08-27T11:58:11.563Z,73136.53
2022-08-27T12:00:44.617Z,73113.28
2022-08-27T12:03:30.740Z,73098.47
2022-08-27T12:06:20.388Z,73128.09
2022-08-27T12:08:48.664Z,73153.47
2022-08-27T12:11:26.752Z,73147.13
2022-08-27T12:13:58.440Z,73113.28
2022-08-27T12:16:33.413Z,73106.94
2022-08-27T12:19:09.553Z,73098.47
2022-08-27T12:21:47.596Z,73090.00
2022-08-27T12:24:42.800Z,73106.94
2022-08-27T12:27:29.621Z,73111.16
2022-08-27T12:30:00.358Z,73102.69
2022-08-27T12:32:31.247Z,73075.22
2022-08-27T12:35:12.566Z,73064.63
2022-08-27T12:37:41.236Z,73035.03
2022-08-27T12:40:20.751Z,73022.34
2022-08-27T12:43:09.263Z,73016.00
2022-08-27T12:45:45.566Z,73011.75
2022-08-27T12:48:13.480Z,72996.97
2022-08-27T12:50:41.631Z,72986.38
2022-08-27T12:53:25.348Z,72977.94
2022-08-27T12:56:25.871Z,72965.22
2022-08-27T12:59:01.097Z,72958.88
2022-08-27T13:01:43.230Z,72969.47
2022-08-27T13:04:20.525Z,73030.78
2022-08-27T13:06:48.662Z,73051.94
2022-08-27T13:09:16.943Z,73032.91
2022-08-27T13:11:49.753Z,73032.91
2022-08-27T13:14:21.418Z,73024.44
2022-08-27T13:16:52.843Z,72961.00
2022-08-27T13:19:24.461Z,72925.06
2022-08-27T13:21:54.381Z,72895.44
2022-08-27T13:24:29.495Z,72872.19
2022-08-27T13:26:58.765Z,72865.84
2022-08-27T13:29:29.419Z,72880.63
2022-08-27T13:32:04.786Z,72819.31
2022-08-27T13:34:38.491Z,72876.41
2022-08-27T13:37:07.706Z,72937.75
2022-08-27T13:39:36.296Z,72886.97
2022-08-27T13:42:07.769Z,72846.81
2022-08-27T13:44:40.663Z,72821.44
2022-08-27T13:47:11.594Z,72770.66
2022-08-27T13:49:44.922Z,72734.72
2022-08-27T13:52:31.486Z,72711.47
2022-08-27T13:55:05.969Z,72728.38
2022-08-27T13:57:43.128Z,72719.91
2022-08-27T14:00:18.692Z,72832.00
2022-08-27T14:05:49.961Z,72863.72
2022-08-27T14:08:20.504Z,72821.44
2022-08-27T14:10:51.697Z,72781.25
2022-08-27T14:13:23.523Z,72772.78
2022-08-27T14:15:59.182Z,72762.22
2022-08-27T14:18:48.474Z,72777.00
2022-08-27T14:21:24.538Z,72760.09
2022-08-27T14:23:54.251Z,72802.38
2022-08-27T14:26:23.244Z,72785.47
2022-08-27T14:28:51.843Z,72757.97
2022-08-27T14:31:21.567Z,72719.91
2022-08-27T14:33:52.086Z,72703.00
2022-08-27T14:36:19.999Z,72707.22
2022-08-27T14:38:49.987Z,72715.69
2022-08-27T14:41:18.757Z,72703.00
2022-08-27T14:43:50.003Z,72719.91
2022-08-27T14:46:41.375Z,72698.78
2022-08-27T14:49:15.975Z,72686.06
2022-08-27T14:51:47.171Z,72688.19
2022-08-27T14:54:16.947Z,72686.06
2022-08-27T14:56:48.552Z,72673.38
2022-08-27T14:59:19.200Z,72696.66
2022-08-27T15:01:49.543Z,72694.53
2022-08-27T15:04:20.169Z,72675.50
2022-08-27T15:06:49.128Z,72675.50
2022-08-27T15:09:19.321Z,72673.38
2022-08-27T15:11:49.589Z,72675.50
2022-08-27T15:14:21.460Z,72675.50
2022-08-27T15:16:53.271Z,72683.97
2022-08-27T15:19:23.493Z,72757.97
2022-08-27T15:21:53.741Z,72749.53
2022-08-27T15:24:26.039Z,72800.28
2022-08-27T15:26:57.950Z,72859.50
2022-08-27T15:29:29.779Z,72872.19
2022-08-27T15:31:59.626Z,72870.06
2022-08-27T15:34:28.418Z,72861.59
2022-08-27T15:36:58.507Z,72834.13
2022-08-27T15:39:26.808Z,72806.63
2022-08-27T15:42:06.368Z,72808.72
2022-08-27T15:44:36.177Z,72842.56
2022-08-27T15:47:06.825Z,72920.81
2022-08-27T15:49:44.758Z,73007.53
2022-08-27T15:52:16.272Z,73070.97
2022-08-27T15:54:53.590Z,73041.38
2022-08-27T15:57:52.311Z,73016.00
2022-08-27T16:00:22.894Z,72988.50
2022-08-27T16:02:52.960Z,72977.94
2022-08-27T16:05:22.140Z,72984.28
2022-08-27T16:07:50.678Z,73020.22
2022-08-27T16:10:19.047Z,73024.44
2022-08-27T16:12:47.433Z,73011.75
2022-08-27T16:15:15.719Z,73024.44
2022-08-27T16:17:44.716Z,73043.50
2022-08-27T16:20:17.017Z,73064.63
2022-08-27T16:22:46.082Z,73079.44
2022-08-27T16:25:18.419Z,73085.78
2022-08-27T16:28:01.169Z,73085.78
2022-08-27T16:30:32.671Z,73092.13
2022-08-27T16:33:01.467Z,73113.28
2022-08-27T16:35:31.157Z,73119.63
2022-08-27T16:37:59.635Z,73125.97
2022-08-27T16:40:27.677Z,73142.88
2022-08-27T16:42:58.553Z,73166.16
2022-08-27T16:45:26.268Z,73176.72
2022-08-27T16:48:11.674Z,73202.09
2022-08-27T16:50:42.199Z,73221.16
2022-08-27T16:53:13.355Z,73242.28
2022-08-27T16:55:42.428Z,73282.47
2022-08-27T16:58:14.445Z,73324.78
2022-08-27T17:00:42.581Z,73339.59
2022-08-27T17:03:10.581Z,73354.41
2022-08-27T17:05:38.860Z,73396.69
2022-08-27T17:08:11.873Z,73502.44
2022-08-27T17:10:43.605Z,73534.19
2022-08-27T17:13:11.525Z,73519.38
2022-08-27T17:15:40.140Z,73515.16
2022-08-27T17:18:08.674Z,73546.88
2022-08-27T17:20:37.537Z,73601.88
2022-08-27T17:23:08.633Z,73633.59
2022-08-27T17:25:37.169Z,73669.56
2022-08-27T17:28:05.428Z,73705.50
2022-08-27T17:30:34.814Z,73701.28
2022-08-27T17:33:02.803Z,73713.97
2022-08-27T17:35:31.212Z,73726.66
2022-08-27T17:37:59.741Z,73764.75
2022-08-27T17:40:31.518Z,73817.63
2022-08-27T17:43:00.125Z,73800.69
2022-08-27T17:45:27.996Z,73811.28
2022-08-27T17:47:55.931Z,73828.19
2022-08-27T17:50:23.679Z,73840.91
2022-08-27T17:52:51.414Z,73857.81
2022-08-27T17:55:19.200Z,73857.81
2022-08-27T17:57:48.302Z,73845.13
2022-08-27T18:00:16.686Z,73870.50
2022-08-27T18:02:46.276Z,73891.66
2022-08-27T18:05:14.810Z,73891.66
2022-08-27T18:07:43.580Z,73887.44
2022-08-27T18:10:15.193Z,73900.13
2022-08-27T18:12:43.751Z,73923.41
2022-08-27T18:15:17.855Z,73931.84
2022-08-27T18:17:45.583Z,73933.97
2022-08-27T18:20:14.584Z,73942.44
2022-08-27T18:22:48.523Z,73946.66
2022-08-27T18:25:17.854Z,73974.16
2022-08-27T18:27:46.532Z,73991.09
2022-08-27T18:30:16.307Z,74027.06
2022-08-27T18:32:44.264Z,74027.06
2022-08-27T18:35:17.374Z,74037.63
2022-08-27T18:37:45.456Z,74048.19
2022-08-27T18:40:14.727Z,74058.78
2022-08-27T18:42:43.540Z,74065.13
2022-08-27T18:45:13.563Z,74086.28
2022-08-27T18:47:43.373Z,74090.50
2022-08-27T18:50:17.374Z,74103.22
2022-08-27T18:52:46.585Z,74158.22
2022-08-27T18:55:17.381Z,74179.38
2022-08-27T18:57:45.138Z,74160.31
2022-08-27T19:00:17.273Z,74175.13
2022-08-27T19:02:51.415Z,74170.91
2022-08-27T19:05:23.418Z,74168.78
2022-08-27T19:07:51.348Z,74164.56
2022-08-27T19:10:19.068Z,74164.56
2022-08-27T19:12:48.116Z,74162.44
2022-08-27T19:15:16.427Z,74170.91
2022-08-27T19:17:49.809Z,74166.66
2022-08-27T19:20:18.557Z,74179.38
2022-08-27T19:22:46.551Z,74175.13
2022-08-27T19:25:16.168Z,74168.78
2022-08-27T19:27:44.219Z,74168.78
2022-08-27T19:30:13.858Z,74170.91
2022-08-27T19:32:42.092Z,74175.13
2022-08-27T19:35:15.097Z,74170.91
2022-08-27T19:37:48.069Z,74185.72
2022-08-27T19:40:21.879Z,74232.25
2022-08-27T19:42:50.250Z,74264.00
2022-08-27T19:45:23.698Z,74261.88
2022-08-27T19:47:52.462Z,74278.78
2022-08-27T19:50:22.426Z,74285.16
2022-08-27T19:52:50.574Z,74295.72
2022-08-27T19:55:19.787Z,74302.06
2022-08-27T19:57:48.183Z,74350.72
2022-08-27T20:00:18.990Z,74346.50
2022-08-27T20:02:47.078Z,74352.84
2022-08-27T20:05:19.468Z,74357.06
2022-08-27T20:07:49.043Z,74361.31
2022-08-27T20:10:17.130Z,74352.84
2022-08-27T20:12:45.938Z,74348.59
2022-08-27T20:15:16.319Z,74342.25
2022-08-27T20:17:45.309Z,74331.69
2022-08-27T20:20:13.530Z,74333.81
2022-08-27T20:22:41.449Z,74344.38
2022-08-27T20:25:13.247Z,74346.50
2022-08-27T20:27:41.837Z,74348.59
2022-08-27T20:30:12.323Z,74359.19
2022-08-27T20:32:40.111Z,74357.06
2022-08-27T20:35:17.235Z,74365.53
2022-08-27T20:37:46.256Z,74403.63
2022-08-27T20:40:20.111Z,74426.88
2022-08-27T20:42:47.827Z,74464.97
2022-08-27T20:45:16.786Z,74484.00
2022-08-27T20:47:46.114Z,74503.06
2022-08-27T20:50:14.406Z,74503.06
2022-08-27T20:52:42.682Z,74500.94
2022-08-27T20:55:12.106Z,74490.34
2022-08-27T20:58:06.494Z,74477.66
2022-08-27T21:00:35.818Z,74475.56
2022-08-27T21:03:03.597Z,74486.13
2022-08-27T21:05:33.817Z,74498.81
2022-08-27T21:08:01.718Z,74519.97
2022-08-27T21:10:29.502Z,74515.75
2022-08-27T21:12:59.795Z,74543.25
2022-08-27T21:15:30.131Z,74541.13
2022-08-27T21:17:57.918Z,74568.63
2022-08-27T21:20:25.604Z,74551.72
2022-08-27T21:22:53.418Z,74536.91
2022-08-27T21:25:24.772Z,74543.25
2022-08-27T21:27:52.993Z,74541.13
2022-08-27T21:30:22.705Z,74545.38
2022-08-27T21:32:50.424Z,74543.25
2022-08-27T21:35:18.188Z,74547.47
2022-08-27T21:37:47.914Z,74551.72
2022-08-27T21:40:16.598Z,74543.25
2022-08-27T21:42:44.560Z,74555.94
2022-08-27T21:45:12.390Z,74551.72
2022-08-27T21:47:41.760Z,74549.59
2022-08-27T21:50:11.702Z,74570.75
2022-08-27T21:52:39.643Z,74577.09
2022-08-27T21:55:08.417Z,74589.81
2022-08-27T21:57:42.299Z,74594.03
2022-08-27T22:00:18.613Z,74619.41
2022-08-27T22:02:48.020Z,74644.81
2022-08-27T22:05:15.831Z,74646.94
2022-08-27T22:07:43.544Z,74657.50
2022-08-27T22:10:11.506Z,74646.94
2022-08-27T22:12:39.343Z,74655.38
2022-08-27T22:15:09.460Z,74649.03
2022-08-27T22:17:37.428Z,74627.88
2022-08-27T22:20:09.497Z,74636.34
2022-08-27T22:22:37.033Z,74621.53
2022-08-27T22:25:06.789Z,74623.66
2022-08-27T22:27:34.624Z,74642.69
2022-08-27T22:30:02.352Z,74634.22
2022-08-27T22:32:30.136Z,74619.41
2022-08-27T22:34:57.822Z,74606.72
2022-08-27T22:37:27.058Z,74600.38
2022-08-27T22:39:55.179Z,74598.25
2022-08-27T22:42:23.383Z,74598.25
2022-08-27T22:44:53.084Z,74594.03
2022-08-27T22:47:20.780Z,74594.03
2022-08-27T22:49:48.547Z,74594.03
2022-08-27T23:23:29.744Z,74581.34
2022-08-27T23:26:16.545Z,74570.75
2022-08-27T23:28:44.638Z,74575.00
2022-08-27T23:31:12.977Z,74570.75
2022-08-27T23:33:41.072Z,74575.00
2022-08-27T23:36:09.933Z,74585.56
2022-08-27T23:38:39.219Z,74585.56
2022-08-27T23:41:07.956Z,74585.56
2022-08-27T23:43:35.643Z,74581.34
2022-08-27T23:46:03.502Z,74575.00
2022-08-27T23:48:31.379Z,74575.00
2022-08-27T23:50:59.058Z,74566.53
2022-08-27T23:53:27.426Z,74564.41
2022-08-27T23:55:56.629Z,74568.63
2022-08-27T23:58:24.390Z,74570.75
